createdAt,value
2022-08-19T00:01:52.950Z,23.39
2022-08-19T00:04:41.901Z,23.37
2022-08-19T00:07:30.526Z,23.32
2022-08-19T00:10:20.497Z,23.27
2022-08-19T00:13:08.788Z,23.21
2022-08-19T00:15:59.056Z,23.18
2022-08-19T00:18:47.669Z,23.12
2022-08-19T00:21:38.764Z,23.09
2022-08-19T00:24:28.585Z,23.05
2022-08-19T00:27:26.239Z,23.00
2022-08-19T00:30:15.917Z,22.95
2022-08-19T00:33:04.445Z,22.92
2022-08-19T00:35:56.124Z,22.89
2022-08-19T00:38:45.402Z,22.85
2022-08-19T00:41:33.298Z,22.82
2022-08-19T00:44:27.115Z,22.78
2022-08-19T00:47:16.082Z,22.76
2022-08-19T00:50:05.899Z,22.71
2022-08-19T00:52:55.233Z,22.68
2022-08-19T00:55:45.831Z,22.65
2022-08-19T00:58:36.509Z,22.60
2022-08-19T01:01:24.969Z,22.56
2022-08-19T01:04:14.011Z,22.53
2022-08-19T01:07:03.488Z,22.51
2022-08-19T01:09:52.435Z,22.47
2022-08-19T01:12:41.473Z,22.45
2022-08-19T01:15:33.729Z,22.41
2022-08-19T01:18:23.101Z,22.38
2022-08-19T01:21:17.069Z,22.34
2022-08-19T01:24:05.611Z,22.33
2022-08-19T01:26:53.960Z,22.30
2022-08-19T01:29:43.434Z,22.26
2022-08-19T01:32:33.897Z,22.22
2022-08-19T01:35:24.123Z,22.20
2022-08-19T01:38:22.836Z,22.17
2022-08-19T01:41:12.860Z,22.13
2022-08-19T01:44:17.609Z,22.10
2022-08-19T01:47:07.261Z,22.07
2022-08-19T01:49:56.048Z,22.03
2022-08-19T01:52:46.471Z,21.99
2022-08-19T01:55:40.655Z,21.97
2022-08-19T01:58:37.194Z,21.93
2022-08-19T02:01:25.565Z,21.91
2022-08-19T02:04:19.736Z,21.88
2022-08-19T02:07:09.253Z,21.86
2022-08-19T02:09:58.274Z,21.82
2022-08-19T02:12:47.644Z,21.80
2022-08-19T02:15:35.878Z,21.77
2022-08-19T02:18:27.917Z,21.76
2022-08-19T02:21:17.483Z,21.74
2022-08-19T02:24:06.554Z,21.72
2022-08-19T02:26:55.951Z,21.68
2022-08-19T02:29:46.796Z,21.64
2022-08-19T02:32:34.929Z,21.60
2022-08-19T02:35:33.203Z,21.58
2022-08-19T02:38:27.837Z,21.56
2022-08-19T02:41:18.762Z,21.51
2022-08-19T02:44:30.019Z,21.50
2022-08-19T02:47:15.496Z,21.47
2022-08-19T02:50:04.628Z,21.45
2022-08-19T02:52:53.165Z,21.43
2022-08-19T02:55:46.507Z,21.40
2022-08-19T02:58:34.680Z,21.38
2022-08-19T03:01:25.979Z,21.36
2022-08-19T03:04:16.686Z,21.36
2022-08-19T03:07:10.833Z,21.34
2022-08-19T03:09:59.755Z,21.32
2022-08-19T03:12:47.744Z,21.29
2022-08-19T03:15:35.949Z,21.27
2022-08-19T03:18:24.155Z,21.24
2022-08-19T03:21:17.301Z,21.22
2022-08-19T03:24:08.614Z,21.20
2022-08-19T03:26:58.934Z,21.19
2022-08-19T03:29:46.831Z,21.18
2022-08-19T03:32:35.278Z,21.16
2022-08-19T03:35:29.757Z,21.15
2022-08-19T03:38:17.867Z,21.15
2022-08-19T03:41:08.838Z,21.14
2022-08-19T03:43:57.763Z,21.11
2022-08-19T03:46:46.224Z,21.11
2022-08-19T03:49:35.590Z,21.09
2022-08-19T03:52:24.151Z,21.09
2022-08-19T03:55:12.274Z,21.09
2022-08-19T03:58:00.618Z,21.09
2022-08-19T04:00:48.691Z,21.09
2022-08-19T04:03:36.917Z,21.10
2022-08-19T04:06:27.360Z,21.10
2022-08-19T04:09:16.652Z,21.12
2022-08-19T04:12:06.344Z,21.12
2022-08-19T04:14:54.901Z,21.14
2022-08-19T04:17:43.319Z,21.16
2022-08-19T04:20:31.337Z,21.17
2022-08-19T04:23:19.559Z,21.19
2022-08-19T04:26:09.302Z,21.20
2022-08-19T04:29:02.125Z,21.23
2022-08-19T04:31:50.745Z,21.25
2022-08-19T04:35:01.243Z,21.29
2022-08-19T04:37:47.559Z,21.32
2022-08-19T04:40:58.858Z,21.37
2022-08-19T04:43:49.237Z,21.43
2022-08-19T04:46:40.539Z,21.49
2022-08-19T04:49:40.425Z,21.56
2022-08-19T04:52:31.764Z,21.60
2022-08-19T04:55:21.081Z,21.67
2022-08-19T04:58:09.987Z,21.75
2022-08-19T05:01:00.394Z,21.82
2022-08-19T05:03:49.700Z,21.90
2022-08-19T05:06:38.356Z,21.95
2022-08-19T05:09:27.116Z,22.05
2022-08-19T05:12:16.700Z,22.12
2022-08-19T05:15:08.871Z,22.21
2022-08-19T05:18:15.558Z,22.28
2022-08-19T05:21:27.537Z,22.38
2022-08-19T05:24:15.060Z,22.47
2022-08-19T05:27:06.169Z,22.56
2022-08-19T05:29:54.518Z,22.66
2022-08-19T05:32:43.513Z,22.76
2022-08-19T05:35:34.578Z,22.87
2022-08-19T05:38:23.476Z,23.00
2022-08-19T05:41:15.323Z,23.12
2022-08-19T05:44:09.528Z,23.24
2022-08-19T05:46:58.692Z,23.38
2022-08-19T05:49:47.375Z,23.50
2022-08-19T05:52:38.409Z,23.64
2022-08-19T05:55:32.229Z,23.78
2022-08-19T05:58:23.115Z,23.90
2022-08-19T06:01:16.700Z,24.04
2022-08-19T06:04:06.038Z,24.19
2022-08-19T06:06:55.444Z,24.33
2022-08-19T06:09:59.015Z,24.46
2022-08-19T06:12:48.718Z,24.60
2022-08-19T06:15:37.610Z,24.74
2022-08-19T06:18:26.383Z,24.89
2022-08-19T06:21:15.003Z,25.04
2022-08-19T06:24:04.318Z,25.20
2022-08-19T06:26:56.710Z,25.35
2022-08-19T06:29:47.955Z,25.53
2022-08-19T06:32:38.826Z,25.68
2022-08-19T06:35:30.485Z,25.83
2022-08-19T06:38:18.567Z,25.97
2022-08-19T06:41:07.500Z,26.13
2022-08-19T06:43:56.560Z,26.29
2022-08-19T06:46:45.689Z,26.43
2022-08-19T06:49:42.499Z,26.59
2022-08-19T06:52:34.005Z,26.74
2022-08-19T06:55:22.626Z,26.87
2022-08-19T06:58:11.029Z,27.04
2022-08-19T07:01:03.436Z,27.18
2022-08-19T07:03:54.753Z,27.32
2022-08-19T07:06:44.268Z,27.46
2022-08-19T07:09:33.043Z,27.57
2022-08-19T07:12:21.093Z,27.71
2022-08-19T07:15:12.768Z,27.83
2022-08-19T07:18:01.341Z,27.93
2022-08-19T07:20:49.780Z,28.05
2022-08-19T07:26:33.589Z,28.29
2022-08-19T07:29:23.738Z,28.43
2022-08-19T07:32:13.977Z,28.55
2022-08-19T07:35:03.788Z,28.68
2022-08-19T07:37:53.341Z,28.80
2022-08-19T07:40:41.951Z,28.90
2022-08-19T07:43:34.708Z,29.03
2022-08-19T07:46:24.017Z,29.18
2022-08-19T07:49:19.716Z,29.27
2022-08-19T07:52:10.204Z,29.37
2022-08-19T07:55:00.466Z,29.49
2022-08-19T07:57:48.701Z,29.64
2022-08-19T08:00:37.120Z,29.78
2022-08-19T08:03:46.367Z,29.92
2022-08-19T08:06:52.485Z,30.10
2022-08-19T08:09:44.665Z,30.25
2022-08-19T08:12:41.664Z,30.39
2022-08-19T08:15:29.927Z,30.56
2022-08-19T08:18:19.206Z,30.71
2022-08-19T08:21:09.342Z,30.87
2022-08-19T08:26:52.229Z,31.16
2022-08-19T08:29:45.604Z,31.25
2022-08-19T08:32:33.903Z,31.40
2022-08-19T08:35:24.159Z,31.54
2022-08-19T08:38:12.760Z,31.68
2022-08-19T08:41:07.152Z,31.85
2022-08-19T08:43:57.443Z,32.01
2022-08-19T08:46:50.392Z,32.17
2022-08-19T08:49:47.205Z,32.33
2022-08-19T08:52:44.035Z,32.51
2022-08-19T08:55:36.831Z,32.60
2022-08-19T08:58:42.636Z,32.69
2022-08-19T09:01:31.325Z,32.82
2022-08-19T09:04:20.161Z,32.97
2022-08-19T09:07:35.490Z,33.09
2022-08-19T09:10:32.919Z,33.13
2022-08-19T09:13:37.328Z,33.28
2022-08-19T09:16:28.318Z,33.46
2022-08-19T09:19:17.937Z,33.60
2022-08-19T09:22:10.668Z,33.74
2022-08-19T09:24:58.815Z,33.88
2022-08-19T09:27:47.701Z,34.04
2022-08-19T09:30:41.527Z,34.20
2022-08-19T09:33:30.127Z,34.34
2022-08-19T09:36:32.924Z,34.48
2022-08-19T09:39:23.280Z,34.61
2022-08-19T09:42:16.342Z,34.75
2022-08-19T09:45:10.430Z,34.86
2022-08-19T09:47:58.083Z,34.86
2022-08-19T09:50:51.771Z,34.93
2022-08-19T09:53:40.707Z,34.99
2022-08-19T09:56:29.471Z,35.08
2022-08-19T09:59:18.472Z,35.12
2022-08-19T10:02:10.886Z,35.25
2022-08-19T10:05:23.042Z,35.37
2022-08-19T10:08:14.970Z,35.26
2022-08-19T10:11:28.480Z,35.21
2022-08-19T10:14:12.401Z,35.31
2022-08-19T10:17:00.796Z,35.48
2022-08-19T10:19:55.704Z,35.64
2022-08-19T10:22:44.654Z,35.76
2022-08-19T10:25:35.504Z,35.77
2022-08-19T10:28:24.489Z,35.72
2022-08-19T10:31:15.491Z,35.73
2022-08-19T10:34:09.987Z,35.75
2022-08-19T10:37:02.105Z,35.90
2022-08-19T10:39:51.250Z,36.04
2022-08-19T10:42:39.939Z,36.15
2022-08-19T10:45:28.702Z,36.23
2022-08-19T10:48:17.703Z,36.26
2022-08-19T10:51:26.883Z,36.33
2022-08-19T10:54:15.961Z,36.52
2022-08-19T10:57:03.885Z,36.72
2022-08-19T10:59:52.582Z,36.83
2022-08-19T11:02:41.943Z,36.90
2022-08-19T11:05:30.830Z,36.98
2022-08-19T11:08:28.251Z,37.11
2022-08-19T11:11:17.021Z,37.18
2022-08-19T11:14:05.494Z,37.24
2022-08-19T11:16:56.277Z,37.30
2022-08-19T11:19:43.210Z,37.35
2022-08-19T11:22:34.430Z,37.41
2022-08-19T11:25:28.946Z,37.50
2022-08-19T11:28:17.017Z,37.61
2022-08-19T11:31:05.496Z,37.62
2022-08-19T11:33:54.362Z,37.60
2022-08-19T11:36:45.703Z,37.60
2022-08-19T11:39:35.887Z,37.68
2022-08-19T11:42:42.408Z,37.79
2022-08-19T11:45:31.122Z,37.90
2022-08-19T11:48:22.557Z,37.95
2022-08-19T11:51:13.110Z,38.07
2022-08-19T11:54:02.404Z,38.11
2022-08-19T11:56:50.617Z,38.16
2022-08-19T11:59:38.775Z,38.05
2022-08-19T12:02:26.969Z,38.05
2022-08-19T12:05:15.614Z,38.07
2022-08-19T12:08:04.064Z,38.10
2022-08-19T12:10:52.598Z,38.08
2022-08-19T12:13:41.570Z,38.12
2022-08-19T12:16:32.199Z,38.22
2022-08-19T12:19:21.764Z,38.32
2022-08-19T12:22:10.910Z,38.38
2022-08-19T12:24:59.170Z,38.45
2022-08-19T12:27:56.743Z,38.42
2022-08-19T12:30:45.838Z,38.16
2022-08-19T12:33:34.380Z,38.02
2022-08-19T12:36:23.488Z,37.96
2022-08-19T12:39:11.980Z,37.83
2022-08-19T12:42:01.954Z,37.78
2022-08-19T12:44:50.259Z,37.79
2022-08-19T12:47:40.850Z,37.88
2022-08-19T12:50:34.113Z,37.90
2022-08-19T12:53:22.878Z,37.84
2022-08-19T12:56:13.204Z,37.84
2022-08-19T12:59:03.263Z,37.89
2022-08-19T13:01:51.994Z,37.94
2022-08-19T13:04:41.599Z,38.08
2022-08-19T13:07:31.096Z,38.24
2022-08-19T13:10:22.374Z,38.33
2022-08-19T13:13:11.887Z,38.42
2022-08-19T13:16:03.186Z,38.50
2022-08-19T13:18:52.269Z,38.52
2022-08-19T13:21:40.253Z,38.48
2022-08-19T13:24:32.723Z,38.37
2022-08-19T13:27:22.650Z,38.21
2022-08-19T13:30:32.635Z,38.12
2022-08-19T13:33:21.268Z,38.01
2022-08-19T13:36:09.690Z,37.91
2022-08-19T13:38:59.230Z,37.88
2022-08-19T13:41:49.060Z,37.91
2022-08-19T13:44:36.931Z,37.98
2022-08-19T13:47:25.070Z,38.04
2022-08-19T13:50:16.159Z,37.94
2022-08-19T13:53:04.663Z,37.78
2022-08-19T13:55:54.029Z,37.74
2022-08-19T13:58:43.878Z,37.71
2022-08-19T14:01:33.315Z,37.68
2022-08-19T14:04:21.595Z,37.62
2022-08-19T14:07:10.089Z,37.62
2022-08-19T14:09:58.457Z,37.61
2022-08-19T14:12:47.754Z,37.59
2022-08-19T14:15:38.498Z,37.51
2022-08-19T14:18:28.611Z,37.44
2022-08-19T14:21:20.516Z,37.38
2022-08-19T14:24:09.289Z,37.36
2022-08-19T14:26:59.842Z,37.28
2022-08-19T14:29:48.089Z,37.22
2022-08-19T14:32:37.460Z,37.19
2022-08-19T14:35:27.596Z,37.14
2022-08-19T14:38:28.099Z,37.13
2022-08-19T14:41:22.183Z,36.98
2022-08-19T14:44:12.852Z,36.90
2022-08-19T14:47:01.256Z,36.77
2022-08-19T14:49:50.746Z,36.68
2022-08-19T14:52:40.837Z,36.70
2022-08-19T14:55:29.396Z,36.77
2022-08-19T14:58:28.474Z,36.72
2022-08-19T15:01:17.777Z,36.63
2022-08-19T15:04:06.445Z,36.68
2022-08-19T15:06:54.776Z,36.75
2022-08-19T15:09:42.897Z,36.78
2022-08-19T15:12:31.340Z,36.83
2022-08-19T15:15:20.326Z,36.83
2022-08-19T15:18:09.059Z,36.85
2022-08-19T15:20:57.811Z,36.85
2022-08-19T15:23:47.569Z,36.88
2022-08-19T15:26:35.795Z,36.88
2022-08-19T15:29:24.929Z,36.85
2022-08-19T15:32:13.130Z,36.85
2022-08-19T15:35:02.755Z,36.83
2022-08-19T15:37:53.385Z,36.81
2022-08-19T15:40:42.521Z,36.77
2022-08-19T15:43:30.816Z,36.71
2022-08-19T15:46:21.835Z,36.68
2022-08-19T15:49:11.640Z,36.64
2022-08-19T15:52:00.971Z,36.60
2022-08-19T15:54:49.617Z,36.52
2022-08-19T15:57:55.992Z,36.46
2022-08-19T16:01:02.550Z,36.40
2022-08-19T16:04:14.687Z,36.33
2022-08-19T16:07:04.185Z,36.30
2022-08-19T16:09:53.097Z,36.24
2022-08-19T16:12:41.514Z,36.17
2022-08-19T16:15:30.928Z,36.09
2022-08-19T16:18:19.318Z,35.98
2022-08-19T16:21:08.014Z,35.90
2022-08-19T16:23:56.681Z,35.82
2022-08-19T16:26:45.751Z,35.75
2022-08-19T16:29:39.273Z,35.66
2022-08-19T16:32:27.937Z,35.58
2022-08-19T16:35:16.216Z,35.49
2022-08-19T16:38:05.257Z,35.39
2022-08-19T16:40:54.221Z,35.31
2022-08-19T16:43:43.113Z,35.16
2022-08-19T16:46:31.659Z,35.06
2022-08-19T16:49:22.658Z,34.94
2022-08-19T16:52:29.955Z,34.80
2022-08-19T16:55:19.320Z,34.70
2022-08-19T16:58:08.411Z,34.59
2022-08-19T17:01:02.027Z,34.51
2022-08-19T17:03:52.601Z,34.36
2022-08-19T17:06:40.723Z,34.25
2022-08-19T17:09:29.523Z,34.15
2022-08-19T17:12:20.183Z,34.05
2022-08-19T17:15:10.357Z,33.96
2022-08-19T17:18:02.548Z,33.86
2022-08-19T17:20:52.249Z,33.75
2022-08-19T17:23:44.476Z,33.64
2022-08-19T17:26:33.363Z,33.53
2022-08-19T17:29:22.216Z,33.43
2022-08-19T17:32:11.004Z,33.32
2022-08-19T17:34:59.320Z,33.21
2022-08-19T17:37:47.226Z,33.09
2022-08-19T17:40:35.875Z,32.95
2022-08-19T17:43:33.374Z,32.83
2022-08-19T17:46:23.375Z,32.72
2022-08-19T17:49:11.861Z,32.61
2022-08-19T17:52:00.792Z,32.49
2022-08-19T17:54:48.964Z,32.37
2022-08-19T17:57:38.825Z,32.25
2022-08-19T18:00:27.512Z,32.14
2022-08-19T18:03:16.477Z,32.03
2022-08-19T18:06:05.577Z,31.92
2022-08-19T18:08:53.545Z,31.81
2022-08-19T18:11:44.229Z,31.69
2022-08-19T18:14:34.206Z,31.58
2022-08-19T18:17:23.857Z,31.48
2022-08-19T18:20:14.482Z,31.37
2022-08-19T18:23:44.928Z,31.28
2022-08-19T18:26:11.639Z,31.17
2022-08-19T18:29:01.358Z,31.10
2022-08-19T18:31:49.902Z,31.03
2022-08-19T18:34:38.831Z,30.96
2022-08-19T18:37:27.291Z,30.86
2022-08-19T18:40:37.465Z,30.79
2022-08-19T18:43:43.681Z,30.72
2022-08-19T18:46:49.944Z,30.65
2022-08-19T18:49:39.020Z,30.56
2022-08-19T18:52:27.650Z,30.50
2022-08-19T18:55:17.600Z,30.44
2022-08-19T18:58:05.701Z,30.38
2022-08-19T19:00:56.154Z,30.29
2022-08-19T19:03:47.464Z,30.22
2022-08-19T19:06:37.534Z,30.16
2022-08-19T19:09:26.428Z,30.09
2022-08-19T19:12:14.902Z,30.02
2022-08-19T19:15:05.376Z,29.96
2022-08-19T19:17:54.536Z,29.89
2022-08-19T19:20:43.070Z,29.83
2022-08-19T19:23:31.262Z,29.78
2022-08-19T19:26:21.103Z,29.72
2022-08-19T19:29:09.205Z,29.65
2022-08-19T19:31:57.508Z,29.59
2022-08-19T19:34:45.727Z,29.52
2022-08-19T19:37:34.484Z,29.46
2022-08-19T19:40:22.740Z,29.41
2022-08-19T19:43:10.659Z,29.37
2022-08-19T19:45:59.307Z,29.31
2022-08-19T19:52:13.937Z,29.19
2022-08-19T19:55:02.755Z,29.15
2022-08-19T19:57:52.785Z,29.09
2022-08-19T20:00:41.234Z,29.06
2022-08-19T20:03:30.050Z,29.01
2022-08-19T20:06:19.541Z,28.96
2022-08-19T20:09:09.760Z,28.91
2022-08-19T20:11:58.102Z,28.85
2022-08-19T20:14:46.918Z,28.79
2022-08-19T20:17:41.797Z,28.73
2022-08-19T20:20:31.046Z,28.66
2022-08-19T20:23:21.122Z,28.59
2022-08-19T20:26:18.031Z,28.52
2022-08-19T20:29:39.078Z,28.44
2022-08-19T20:32:27.451Z,28.37
2022-08-19T20:35:18.163Z,28.30
2022-08-19T20:38:08.168Z,28.22
2022-08-19T20:40:56.800Z,28.15
2022-08-19T20:43:45.624Z,28.06
2022-08-19T20:46:34.694Z,28.00
2022-08-19T20:49:22.814Z,27.93
2022-08-19T20:52:15.415Z,27.87
2022-08-19T20:55:03.974Z,27.79
2022-08-19T20:57:52.013Z,27.73
2022-08-19T21:00:40.601Z,27.66
2022-08-19T21:03:31.061Z,27.60
2022-08-19T21:06:19.896Z,27.52
2022-08-19T21:09:11.674Z,27.44
2022-08-19T21:12:00.192Z,27.37
2022-08-19T21:14:47.991Z,27.29
2022-08-19T21:17:37.148Z,27.19
2022-08-19T21:20:25.243Z,27.08
2022-08-19T21:23:15.224Z,26.97
2022-08-19T21:26:03.740Z,26.89
2022-08-19T21:28:51.767Z,26.86
2022-08-19T21:31:40.516Z,26.81
2022-08-19T21:34:29.127Z,26.78
2022-08-19T21:37:25.551Z,26.74
2022-08-19T21:40:14.668Z,26.70
2022-08-19T21:43:02.822Z,26.68
2022-08-19T21:45:51.581Z,26.63
2022-08-19T21:48:39.641Z,26.59
2022-08-19T21:51:28.001Z,26.54
2022-08-19T21:54:15.891Z,26.49
2022-08-19T21:57:04.500Z,26.45
2022-08-19T21:59:59.527Z,26.41
2022-08-19T22:02:47.899Z,26.35
2022-08-19T22:05:36.365Z,26.31
2022-08-19T22:08:26.775Z,26.26
2022-08-19T22:11:14.820Z,26.20
2022-08-19T22:14:04.299Z,26.15
2022-08-19T22:16:53.040Z,26.10
2022-08-19T22:19:41.114Z,26.03
2022-08-19T22:22:30.522Z,25.99
2022-08-19T22:25:31.315Z,25.91
2022-08-19T22:28:27.647Z,25.87
2022-08-19T22:31:17.818Z,25.81
2022-08-19T22:34:06.821Z,25.77
2022-08-19T22:36:55.021Z,25.71
2022-08-19T22:39:43.367Z,25.65
2022-08-19T22:42:31.890Z,25.59
2022-08-19T22:45:22.103Z,25.55
2022-08-19T22:48:12.875Z,25.50
2022-08-19T22:51:19.199Z,25.45
2022-08-19T22:54:07.591Z,25.38
2022-08-19T22:56:56.271Z,25.34
2022-08-19T22:59:44.547Z,25.29
2022-08-19T23:02:37.741Z,25.25
2022-08-19T23:05:27.839Z,25.20
2022-08-19T23:08:16.135Z,25.16
2022-08-19T23:11:05.390Z,25.12
2022-08-19T23:13:54.397Z,25.09
2022-08-19T23:16:49.108Z,25.04
2022-08-19T23:19:39.413Z,24.99
2022-08-19T23:22:28.829Z,24.97
2022-08-19T23:25:20.187Z,24.93
2022-08-19T23:28:23.073Z,24.89
2022-08-19T23:31:11.580Z,24.85
2022-08-19T23:33:59.977Z,24.81
2022-08-19T23:36:50.213Z,24.77
2022-08-19T23:39:38.885Z,24.72
2022-08-19T23:42:29.188Z,24.69
2022-08-19T23:45:23.912Z,24.64
2022-08-19T23:48:13.228Z,24.59
2022-08-19T23:51:03.297Z,24.55
2022-08-19T23:53:51.849Z,24.53
2022-08-19T23:56:40.235Z,24.49
2022-08-19T23:59:28.422Z,24.43
